RU-0403 weather

Yelizavetinskaya Airstrip
Yelizavetinskaya, Krasnodar Krai, Russia

Public forecast

Using degrees Celsius for public forecast. Weather courtesy of forecast.io.

METAR (pilot weather report)

Closest report is Krasnodar Pashkovsky International Airport, 15.8 nm (29.2 km) E. Retrieved 2019/08/18 00:30 UTC (9 minutes ago):

URKK 180030Z 26002MPS 9999 FEW028 20/18 Q1010 R23L/CLRD70 NOSIG RMK QFE754

TAF (pilot weather forecast)

Forecast is more than 12 hours old.

Closest forecast is Krasnodar Pashkovsky International Airport, 15.8 nm (29.2 km) E. Retrieved 2019/08/17 00:21 UTC (1 day ago):

TAF URKK 172253Z 1800/1824 30003G08MPS 9999 SCT040CB TEMPO 1800/1806 3100 BR SCT011 SCT040CB TEMPO 1806/1821 03007G14MPS 3100 -TSRA SCT011 BKN020CB